sensor_id;sensor_type;location;lat;lon;timestamp;temperature;humidity
63648;DHT22;49792;48.744;9.176;2022-08-19T00:02:20;24.00;55.40
63648;DHT22;49792;48.744;9.176;2022-08-19T00:04:46;24.00;54.70
63648;DHT22;49792;48.744;9.176;2022-08-19T00:07:13;24.00;54.90
63648;DHT22;49792;48.744;9.176;2022-08-19T00:09:39;24.00;55.10
63648;DHT22;49792;48.744;9.176;2022-08-19T00:12:04;24.00;54.60
63648;DHT22;49792;48.744;9.176;2022-08-19T00:14:30;24.00;55.10
63648;DHT22;49792;48.744;9.176;2022-08-19T00:16:59;24.00;54.70
63648;DHT22;49792;48.744;9.176;2022-08-19T00:19:25;24.00;54.70
63648;DHT22;49792;48.744;9.176;2022-08-19T00:21:51;24.00;54.60
63648;DHT22;49792;48.744;9.176;2022-08-19T00:24:17;24.00;54.40
63648;DHT22;49792;48.744;9.176;2022-08-19T00:26:42;24.00;54.60
63648;DHT22;49792;48.744;9.176;2022-08-19T00:29:09;24.00;55.10
63648;DHT22;49792;48.744;9.176;2022-08-19T00:31:35;24.00;54.50
63648;DHT22;49792;48.744;9.176;2022-08-19T00:34:01;24.00;54.80
63648;DHT22;49792;48.744;9.176;2022-08-19T00:36:26;24.00;55.00
63648;DHT22;49792;48.744;9.176;2022-08-19T00:38:53;24.00;54.80
63648;DHT22;49792;48.744;9.176;2022-08-19T00:41:20;24.00;54.50
63648;DHT22;49792;48.744;9.176;2022-08-19T00:43:56;23.90;54.50
63648;DHT22;49792;48.744;9.176;2022-08-19T00:46:22;23.90;54.60
63648;DHT22;49792;48.744;9.176;2022-08-19T00:48:47;23.90;54.60
63648;DHT22;49792;48.744;9.176;2022-08-19T00:51:12;23.90;54.60
63648;DHT22;49792;48.744;9.176;2022-08-19T00:53:38;23.90;54.50
63648;DHT22;49792;48.744;9.176;2022-08-19T00:56:04;23.90;54.60
63648;DHT22;49792;48.744;9.176;2022-08-19T00:58:33;23.90;54.70
63648;DHT22;49792;48.744;9.176;2022-08-19T01:01:00;23.90;54.70
63648;DHT22;49792;48.744;9.176;2022-08-19T01:03:26;23.90;54.70
63648;DHT22;49792;48.744;9.176;2022-08-19T01:05:52;23.90;54.70
63648;DHT22;49792;48.744;9.176;2022-08-19T01:08:19;23.90;54.70
63648;DHT22;49792;48.744;9.176;2022-08-19T01:10:48;23.90;54.80
63648;DHT22;49792;48.744;9.176;2022-08-19T01:13:14;23.90;55.10
63648;DHT22;49792;48.744;9.176;2022-08-19T01:15:44;23.90;54.70
63648;DHT22;49792;48.744;9.176;2022-08-19T01:18:11;23.90;54.80
63648;DHT22;49792;48.744;9.176;2022-08-19T01:20:37;23.90;54.80
63648;DHT22;49792;48.744;9.176;2022-08-19T01:23:02;23.90;54.80
63648;DHT22;49792;48.744;9.176;2022-08-19T01:25:35;23.90;55.20
63648;DHT22;49792;48.744;9.176;2022-08-19T01:28:03;23.90;54.80
63648;DHT22;49792;48.744;9.176;2022-08-19T01:30:31;23.90;54.70
63648;DHT22;49792;48.744;9.176;2022-08-19T01:32:56;23.90;54.70
63648;DHT22;49792;48.744;9.176;2022-08-19T01:35:23;23.80;54.70
63648;DHT22;49792;48.744;9.176;2022-08-19T01:37:53;23.90;54.80
63648;DHT22;49792;48.744;9.176;2022-08-19T01:40:20;23.90;54.80
63648;DHT22;49792;48.744;9.176;2022-08-19T01:42:49;23.80;54.80
63648;DHT22;49792;48.744;9.176;2022-08-19T01:45:15;23.80;54.80
63648;DHT22;49792;48.744;9.176;2022-08-19T01:47:41;23.80;54.80
63648;DHT22;49792;48.744;9.176;2022-08-19T01:50:07;23.80;54.80
63648;DHT22;49792;48.744;9.176;2022-08-19T01:52:34;23.80;54.80
63648;DHT22;49792;48.744;9.176;2022-08-19T01:55:00;23.80;54.80
63648;DHT22;49792;48.744;9.176;2022-08-19T01:57:25;23.80;54.80
63648;DHT22;49792;48.744;9.176;2022-08-19T01:59:51;23.80;54.70
63648;DHT22;49792;48.744;9.176;2022-08-19T02:02:17;23.80;54.70
63648;DHT22;49792;48.744;9.176;2022-08-19T02:04:42;23.80;54.80
63648;DHT22;49792;48.744;9.176;2022-08-19T02:07:08;23.80;54.80
63648;DHT22;49792;48.744;9.176;2022-08-19T02:09:33;23.80;54.80
63648;DHT22;49792;48.744;9.176;2022-08-19T02:11:59;23.80;54.90
63648;DHT22;49792;48.744;9.176;2022-08-19T02:14:25;23.80;54.80
63648;DHT22;49792;48.744;9.176;2022-08-19T02:16:50;23.80;54.90
63648;DHT22;49792;48.744;9.176;2022-08-19T02:19:16;23.80;54.90
63648;DHT22;49792;48.744;9.176;2022-08-19T02:21:41;23.80;55.00
63648;DHT22;49792;48.744;9.176;2022-08-19T02:24:09;23.80;54.90
63648;DHT22;49792;48.744;9.176;2022-08-19T02:26:34;23.80;55.00
63648;DHT22;49792;48.744;9.176;2022-08-19T02:29:00;23.80;55.00
63648;DHT22;49792;48.744;9.176;2022-08-19T02:31:26;23.80;54.90
63648;DHT22;49792;48.744;9.176;2022-08-19T02:33:53;23.80;55.00
63648;DHT22;49792;48.744;9.176;2022-08-19T02:36:19;23.80;55.00
63648;DHT22;49792;48.744;9.176;2022-08-19T02:38:45;23.80;55.00
63648;DHT22;49792;48.744;9.176;2022-08-19T02:41:16;23.80;55.00
63648;DHT22;49792;48.744;9.176;2022-08-19T02:43:42;23.70;55.00
63648;DHT22;49792;48.744;9.176;2022-08-19T02:46:17;23.70;55.00
63648;DHT22;49792;48.744;9.176;2022-08-19T02:48:47;23.70;55.00
63648;DHT22;49792;48.744;9.176;2022-08-19T02:51:16;23.80;55.10
63648;DHT22;49792;48.744;9.176;2022-08-19T02:53:42;23.70;55.10
63648;DHT22;49792;48.744;9.176;2022-08-19T02:56:08;23.70;55.20
63648;DHT22;49792;48.744;9.176;2022-08-19T02:58:34;23.70;55.20
63648;DHT22;49792;48.744;9.176;2022-08-19T03:00:59;23.70;55.20
63648;DHT22;49792;48.744;9.176;2022-08-19T03:03:25;23.70;55.20
63648;DHT22;49792;48.744;9.176;2022-08-19T03:05:50;23.70;55.20
63648;DHT22;49792;48.744;9.176;2022-08-19T03:08:16;23.70;55.30
63648;DHT22;49792;48.744;9.176;2022-08-19T03:10:42;23.70;55.30
63648;DHT22;49792;48.744;9.176;2022-08-19T03:13:10;23.70;55.40
63648;DHT22;49792;48.744;9.176;2022-08-19T03:15:38;23.70;55.40
63648;DHT22;49792;48.744;9.176;2022-08-19T03:18:04;23.70;55.50
63648;DHT22;49792;48.744;9.176;2022-08-19T03:20:29;23.70;55.50
63648;DHT22;49792;48.744;9.176;2022-08-19T03:22:55;23.70;55.50
63648;DHT22;49792;48.744;9.176;2022-08-19T03:25:20;23.70;55.50
63648;DHT22;49792;48.744;9.176;2022-08-19T03:27:46;23.70;55.50
63648;DHT22;49792;48.744;9.176;2022-08-19T03:30:14;23.70;55.60
63648;DHT22;49792;48.744;9.176;2022-08-19T03:32:39;23.70;55.70
63648;DHT22;49792;48.744;9.176;2022-08-19T03:35:05;23.70;55.70
63648;DHT22;49792;48.744;9.176;2022-08-19T03:37:31;23.60;55.60
63648;DHT22;49792;48.744;9.176;2022-08-19T03:39:56;23.70;55.70
63648;DHT22;49792;48.744;9.176;2022-08-19T03:42:22;23.70;55.70
63648;DHT22;49792;48.744;9.176;2022-08-19T03:44:47;23.70;55.60
63648;DHT22;49792;48.744;9.176;2022-08-19T03:47:13;23.70;55.50
63648;DHT22;49792;48.744;9.176;2022-08-19T03:49:41;23.70;55.60
63648;DHT22;49792;48.744;9.176;2022-08-19T03:52:07;23.70;55.50
63648;DHT22;49792;48.744;9.176;2022-08-19T03:54:33;23.70;55.60
63648;DHT22;49792;48.744;9.176;2022-08-19T03:56:58;23.70;55.50
63648;DHT22;49792;48.744;9.176;2022-08-19T03:59:26;23.70;55.50
63648;DHT22;49792;48.744;9.176;2022-08-19T04:01:55;23.70;55.50
63648;DHT22;49792;48.744;9.176;2022-08-19T04:04:21;23.70;55.60
63648;DHT22;49792;48.744;9.176;2022-08-19T04:06:47;23.70;55.40
63648;DHT22;49792;48.744;9.176;2022-08-19T04:09:12;23.70;55.40
63648;DHT22;49792;48.744;9.176;2022-08-19T04:11:48;23.70;55.50
63648;DHT22;49792;48.744;9.176;2022-08-19T04:14:16;23.70;55.50
63648;DHT22;49792;48.744;9.176;2022-08-19T04:16:42;23.70;55.60
63648;DHT22;49792;48.744;9.176;2022-08-19T04:19:09;23.70;55.50
63648;DHT22;49792;48.744;9.176;2022-08-19T04:21:35;23.70;55.50
63648;DHT22;49792;48.744;9.176;2022-08-19T04:24:01;23.70;55.50
63648;DHT22;49792;48.744;9.176;2022-08-19T04:26:27;23.70;55.50
63648;DHT22;49792;48.744;9.176;2022-08-19T04:28:53;23.70;55.50
63648;DHT22;49792;48.744;9.176;2022-08-19T04:31:23;23.70;55.50
63648;DHT22;49792;48.744;9.176;2022-08-19T04:33:57;23.60;56.40
63648;DHT22;49792;48.744;9.176;2022-08-19T04:36:27;23.70;57.10
63648;DHT22;49792;48.744;9.176;2022-08-19T04:38:54;23.70;56.30
63648;DHT22;49792;48.744;9.176;2022-08-19T04:41:20;23.70;55.90
63648;DHT22;49792;48.744;9.176;2022-08-19T04:44:04;23.70;56.50
63648;DHT22;49792;48.744;9.176;2022-08-19T04:46:29;23.70;55.70
63648;DHT22;49792;48.744;9.176;2022-08-19T04:49:01;23.70;55.60
63648;DHT22;49792;48.744;9.176;2022-08-19T04:51:26;23.70;55.70
63648;DHT22;49792;48.744;9.176;2022-08-19T04:53:52;23.70;55.70
63648;DHT22;49792;48.744;9.176;2022-08-19T04:56:18;23.60;55.60
63648;DHT22;49792;48.744;9.176;2022-08-19T04:58:46;23.70;55.70
63648;DHT22;49792;48.744;9.176;2022-08-19T05:01:17;23.60;55.70
63648;DHT22;49792;48.744;9.176;2022-08-19T05:03:43;23.60;55.70
63648;DHT22;49792;48.744;9.176;2022-08-19T05:06:10;23.70;56.40
63648;DHT22;49792;48.744;9.176;2022-08-19T05:08:37;23.70;55.90
63648;DHT22;49792;48.744;9.176;2022-08-19T05:11:07;23.70;56.70
63648;DHT22;49792;48.744;9.176;2022-08-19T05:13:33;23.70;56.30
63648;DHT22;49792;48.744;9.176;2022-08-19T05:15:59;23.70;55.80
63648;DHT22;49792;48.744;9.176;2022-08-19T05:18:25;23.70;57.00
63648;DHT22;49792;48.744;9.176;2022-08-19T05:21:10;23.80;56.60
63648;DHT22;49792;48.744;9.176;2022-08-19T05:23:54;23.80;57.00
63648;DHT22;49792;48.744;9.176;2022-08-19T05:26:20;23.80;57.30
63648;DHT22;49792;48.744;9.176;2022-08-19T05:28:46;23.80;56.80
63648;DHT22;49792;48.744;9.176;2022-08-19T05:31:11;23.90;58.70
63648;DHT22;49792;48.744;9.176;2022-08-19T05:33:37;23.90;57.50
63648;DHT22;49792;48.744;9.176;2022-08-19T05:36:05;23.90;57.90
63648;DHT22;49792;48.744;9.176;2022-08-19T05:38:33;23.90;58.10
63648;DHT22;49792;48.744;9.176;2022-08-19T05:40:58;23.80;59.10
63648;DHT22;49792;48.744;9.176;2022-08-19T05:43:24;23.70;58.90
63648;DHT22;49792;48.744;9.176;2022-08-19T05:45:50;23.70;58.60
63648;DHT22;49792;48.744;9.176;2022-08-19T05:48:16;23.60;58.80
63648;DHT22;49792;48.744;9.176;2022-08-19T05:50:45;23.70;58.40
63648;DHT22;49792;48.744;9.176;2022-08-19T05:53:12;23.70;58.50
63648;DHT22;49792;48.744;9.176;2022-08-19T05:55:37;23.60;58.60
63648;DHT22;49792;48.744;9.176;2022-08-19T05:58:05;23.60;58.60
63648;DHT22;49792;48.744;9.176;2022-08-19T06:00:33;23.60;58.70
63648;DHT22;49792;48.744;9.176;2022-08-19T06:02:59;23.60;58.60
63648;DHT22;49792;48.744;9.176;2022-08-19T06:05:31;23.60;58.60
63648;DHT22;49792;48.744;9.176;2022-08-19T06:07:56;23.60;58.50
63648;DHT22;49792;48.744;9.176;2022-08-19T06:10:22;23.60;58.40
63648;DHT22;49792;48.744;9.176;2022-08-19T06:12:48;23.50;58.30
63648;DHT22;49792;48.744;9.176;2022-08-19T06:15:13;23.50;58.30
63648;DHT22;49792;48.744;9.176;2022-08-19T06:17:39;23.50;58.30
63648;DHT22;49792;48.744;9.176;2022-08-19T06:20:07;23.50;58.20
63648;DHT22;49792;48.744;9.176;2022-08-19T06:22:37;23.50;58.20
63648;DHT22;49792;48.744;9.176;2022-08-19T06:25:04;23.50;58.20
63648;DHT22;49792;48.744;9.176;2022-08-19T06:27:30;23.50;58.20
63648;DHT22;49792;48.744;9.176;2022-08-19T06:29:57;23.50;58.00
63648;DHT22;49792;48.744;9.176;2022-08-19T06:32:22;23.50;58.10
63648;DHT22;49792;48.744;9.176;2022-08-19T06:34:48;23.50;58.00
63648;DHT22;49792;48.744;9.176;2022-08-19T06:37:14;23.50;58.20
63648;DHT22;49792;48.744;9.176;2022-08-19T06:39:40;23.50;57.90
63648;DHT22;49792;48.744;9.176;2022-08-19T06:42:06;23.50;58.00
63648;DHT22;49792;48.744;9.176;2022-08-19T06:44:35;23.50;57.90
63648;DHT22;49792;48.744;9.176;2022-08-19T06:47:04;23.50;58.10
63648;DHT22;49792;48.744;9.176;2022-08-19T06:49:30;23.50;58.30
63648;DHT22;49792;48.744;9.176;2022-08-19T06:51:59;23.40;58.10
63648;DHT22;49792;48.744;9.176;2022-08-19T06:54:25;23.40;58.40
63648;DHT22;49792;48.744;9.176;2022-08-19T06:56:51;23.40;58.40
63648;DHT22;49792;48.744;9.176;2022-08-19T06:59:18;23.40;58.10
63648;DHT22;49792;48.744;9.176;2022-08-19T07:01:45;23.40;58.30
63648;DHT22;49792;48.744;9.176;2022-08-19T07:04:13;23.40;58.40
63648;DHT22;49792;48.744;9.176;2022-08-19T07:06:39;23.40;58.70
63648;DHT22;49792;48.744;9.176;2022-08-19T07:09:05;23.50;58.20
63648;DHT22;49792;48.744;9.176;2022-08-19T07:11:31;23.40;58.20
63648;DHT22;49792;48.744;9.176;2022-08-19T07:13:58;23.40;58.30
63648;DHT22;49792;48.744;9.176;2022-08-19T07:16:23;23.50;58.10
63648;DHT22;49792;48.744;9.176;2022-08-19T07:18:49;23.50;57.60
63648;DHT22;49792;48.744;9.176;2022-08-19T07:21:16;23.50;57.40
63648;DHT22;49792;48.744;9.176;2022-08-19T07:23:43;23.60;57.30
63648;DHT22;49792;48.744;9.176;2022-08-19T07:26:14;23.60;57.30
63648;DHT22;49792;48.744;9.176;2022-08-19T07:28:40;23.60;57.40
63648;DHT22;49792;48.744;9.176;2022-08-19T07:31:06;23.60;57.30
63648;DHT22;49792;48.744;9.176;2022-08-19T07:33:32;23.60;57.20
63648;DHT22;49792;48.744;9.176;2022-08-19T07:35:58;23.60;57.30
63648;DHT22;49792;48.744;9.176;2022-08-19T07:38:24;23.60;57.30
63648;DHT22;49792;48.744;9.176;2022-08-19T07:40:49;23.60;57.20
63648;DHT22;49792;48.744;9.176;2022-08-19T07:43:16;23.60;57.20
63648;DHT22;49792;48.744;9.176;2022-08-19T07:45:45;23.60;57.20
63648;DHT22;49792;48.744;9.176;2022-08-19T07:48:12;23.60;57.20
63648;DHT22;49792;48.744;9.176;2022-08-19T07:50:37;23.60;57.20
63648;DHT22;49792;48.744;9.176;2022-08-19T07:53:03;23.60;57.20
63648;DHT22;49792;48.744;9.176;2022-08-19T07:55:29;23.60;57.20
63648;DHT22;49792;48.744;9.176;2022-08-19T07:57:55;23.60;57.20
63648;DHT22;49792;48.744;9.176;2022-08-19T08:00:20;23.70;57.20
63648;DHT22;49792;48.744;9.176;2022-08-19T08:02:46;23.60;57.20
63648;DHT22;49792;48.744;9.176;2022-08-19T08:05:11;23.60;57.20
63648;DHT22;49792;48.744;9.176;2022-08-19T08:07:55;23.70;57.10
63648;DHT22;49792;48.744;9.176;2022-08-19T08:10:39;23.70;57.10
63648;DHT22;49792;48.744;9.176;2022-08-19T08:13:05;23.70;57.90
63648;DHT22;49792;48.744;9.176;2022-08-19T08:15:31;23.80;58.30
63648;DHT22;49792;48.744;9.176;2022-08-19T08:17:56;23.90;59.20
63648;DHT22;49792;48.744;9.176;2022-08-19T08:20:22;23.90;59.10
63648;DHT22;49792;48.744;9.176;2022-08-19T08:22:48;23.80;58.80
63648;DHT22;49792;48.744;9.176;2022-08-19T08:25:32;23.70;59.60
63648;DHT22;49792;48.744;9.176;2022-08-19T08:27:58;23.70;59.30
63648;DHT22;49792;48.744;9.176;2022-08-19T08:30:25;23.60;59.40
63648;DHT22;49792;48.744;9.176;2022-08-19T08:32:51;23.70;59.50
63648;DHT22;49792;48.744;9.176;2022-08-19T08:35:21;23.70;59.00
63648;DHT22;49792;48.744;9.176;2022-08-19T08:37:48;23.70;59.00
63648;DHT22;49792;48.744;9.176;2022-08-19T08:40:22;23.80;59.20
63648;DHT22;49792;48.744;9.176;2022-08-19T08:42:55;23.80;59.00
63648;DHT22;49792;48.744;9.176;2022-08-19T08:45:25;23.70;59.00
63648;DHT22;49792;48.744;9.176;2022-08-19T08:47:52;23.70;59.10
63648;DHT22;49792;48.744;9.176;2022-08-19T08:50:24;23.70;59.00
63648;DHT22;49792;48.744;9.176;2022-08-19T08:52:51;23.70;59.00
63648;DHT22;49792;48.744;9.176;2022-08-19T08:55:19;23.70;58.80
63648;DHT22;49792;48.744;9.176;2022-08-19T09:00:15;23.70;58.80
63648;DHT22;49792;48.744;9.176;2022-08-19T09:02:42;23.70;58.90
63648;DHT22;49792;48.744;9.176;2022-08-19T09:05:08;23.70;58.80
63648;DHT22;49792;48.744;9.176;2022-08-19T09:10:29;23.70;58.60
63648;DHT22;49792;48.744;9.176;2022-08-19T09:15:42;23.70;58.70
63648;DHT22;49792;48.744;9.176;2022-08-19T09:18:09;23.70;58.70
63648;DHT22;49792;48.744;9.176;2022-08-19T09:20:35;23.70;58.60
63648;DHT22;49792;48.744;9.176;2022-08-19T09:23:01;23.70;58.70
63648;DHT22;49792;48.744;9.176;2022-08-19T09:25:26;23.70;58.70
63648;DHT22;49792;48.744;9.176;2022-08-19T09:27:52;23.70;58.60
63648;DHT22;49792;48.744;9.176;2022-08-19T09:30:23;23.70;58.60
63648;DHT22;49792;48.744;9.176;2022-08-19T09:32:50;23.70;58.50
63648;DHT22;49792;48.744;9.176;2022-08-19T09:35:18;23.70;58.60
63648;DHT22;49792;48.744;9.176;2022-08-19T09:37:43;23.20;60.60
63648;DHT22;49792;48.744;9.176;2022-08-19T09:40:09;22.80;62.00
63648;DHT22;49792;48.744;9.176;2022-08-19T09:42:35;22.60;63.40
63648;DHT22;49792;48.744;9.176;2022-08-19T09:45:01;22.50;63.30
63648;DHT22;49792;48.744;9.176;2022-08-19T09:47:27;22.60;62.80
63648;DHT22;49792;48.744;9.176;2022-08-19T09:49:53;22.60;62.80
63648;DHT22;49792;48.744;9.176;2022-08-19T09:52:18;22.50;63.20
63648;DHT22;49792;48.744;9.176;2022-08-19T09:54:44;22.60;63.20
63648;DHT22;49792;48.744;9.176;2022-08-19T09:57:10;22.80;62.50
63648;DHT22;49792;48.744;9.176;2022-08-19T09:59:35;22.80;62.60
63648;DHT22;49792;48.744;9.176;2022-08-19T10:02:01;22.70;63.00
63648;DHT22;49792;48.744;9.176;2022-08-19T10:04:27;22.60;62.90
63648;DHT22;49792;48.744;9.176;2022-08-19T10:07:12;22.60;63.20
63648;DHT22;49792;48.744;9.176;2022-08-19T10:09:38;22.60;63.50
63648;DHT22;49792;48.744;9.176;2022-08-19T10:12:05;22.50;63.60
63648;DHT22;49792;48.744;9.176;2022-08-19T10:14:30;22.80;63.60
63648;DHT22;49792;48.744;9.176;2022-08-19T10:16:56;22.60;63.40
63648;DHT22;49792;48.744;9.176;2022-08-19T10:19:22;22.60;63.70
63648;DHT22;49792;48.744;9.176;2022-08-19T10:21:47;22.60;63.30
63648;DHT22;49792;48.744;9.176;2022-08-19T10:24:13;22.70;63.20
63648;DHT22;49792;48.744;9.176;2022-08-19T10:26:39;22.50;64.10
63648;DHT22;49792;48.744;9.176;2022-08-19T10:29:07;22.40;64.30
63648;DHT22;49792;48.744;9.176;2022-08-19T10:31:33;22.40;64.90
63648;DHT22;49792;48.744;9.176;2022-08-19T10:33:59;22.50;64.20
63648;DHT22;49792;48.744;9.176;2022-08-19T10:36:26;22.60;63.90
63648;DHT22;49792;48.744;9.176;2022-08-19T10:38:52;22.60;64.40
63648;DHT22;49792;48.744;9.176;2022-08-19T10:41:22;22.60;65.00
63648;DHT22;49792;48.744;9.176;2022-08-19T10:43:52;22.70;63.90
63648;DHT22;49792;48.744;9.176;2022-08-19T10:46:20;22.60;63.90
63648;DHT22;49792;48.744;9.176;2022-08-19T10:48:45;22.50;64.50
63648;DHT22;49792;48.744;9.176;2022-08-19T10:51:11;22.50;65.00
63648;DHT22;49792;48.744;9.176;2022-08-19T10:53:56;22.40;65.10
63648;DHT22;49792;48.744;9.176;2022-08-19T10:56:23;22.40;65.30
63648;DHT22;49792;48.744;9.176;2022-08-19T10:59:07;22.50;66.00
63648;DHT22;49792;48.744;9.176;2022-08-19T11:01:33;22.50;65.60
63648;DHT22;49792;48.744;9.176;2022-08-19T11:03:59;22.60;64.20
63648;DHT22;49792;48.744;9.176;2022-08-19T11:06:25;22.60;64.20
63648;DHT22;49792;48.744;9.176;2022-08-19T11:08:51;22.60;64.10
63648;DHT22;49792;48.744;9.176;2022-08-19T11:11:17;22.80;63.80
63648;DHT22;49792;48.744;9.176;2022-08-19T11:13:42;22.60;63.20
63648;DHT22;49792;48.744;9.176;2022-08-19T11:16:12;22.60;63.70
63648;DHT22;49792;48.744;9.176;2022-08-19T11:18:39;22.60;63.70
63648;DHT22;49792;48.744;9.176;2022-08-19T11:21:09;22.60;63.30
63648;DHT22;49792;48.744;9.176;2022-08-19T11:23:35;22.50;63.60
63648;DHT22;49792;48.744;9.176;2022-08-19T11:26:01;22.60;64.10
63648;DHT22;49792;48.744;9.176;2022-08-19T11:28:26;22.50;63.90
63648;DHT22;49792;48.744;9.176;2022-08-19T11:30:52;22.50;64.60
63648;DHT22;49792;48.744;9.176;2022-08-19T11:33:17;22.50;64.10
63648;DHT22;49792;48.744;9.176;2022-08-19T11:35:44;22.50;64.20
63648;DHT22;49792;48.744;9.176;2022-08-19T11:38:10;22.50;65.00
63648;DHT22;49792;48.744;9.176;2022-08-19T11:40:36;22.40;65.40
63648;DHT22;49792;48.744;9.176;2022-08-19T11:43:02;22.50;64.70
63648;DHT22;49792;48.744;9.176;2022-08-19T11:45:28;22.60;64.20
63648;DHT22;49792;48.744;9.176;2022-08-19T11:47:54;22.60;64.00
63648;DHT22;49792;48.744;9.176;2022-08-19T11:50:20;22.90;63.80
63648;DHT22;49792;48.744;9.176;2022-08-19T11:52:46;22.70;65.60
63648;DHT22;49792;48.744;9.176;2022-08-19T11:55:12;22.60;66.20
63648;DHT22;49792;48.744;9.176;2022-08-19T11:57:38;22.90;65.10
63648;DHT22;49792;48.744;9.176;2022-08-19T12:00:05;22.80;64.70
63648;DHT22;49792;48.744;9.176;2022-08-19T12:02:32;22.70;64.80
63648;DHT22;49792;48.744;9.176;2022-08-19T12:04:57;22.60;65.10
63648;DHT22;49792;48.744;9.176;2022-08-19T12:07:23;22.60;64.60
63648;DHT22;49792;48.744;9.176;2022-08-19T12:09:50;22.50;65.60
63648;DHT22;49792;48.744;9.176;2022-08-19T12:12:16;22.70;64.80
63648;DHT22;49792;48.744;9.176;2022-08-19T12:14:49;22.90;63.80
63648;DHT22;49792;48.744;9.176;2022-08-19T12:17:22;22.90;63.90
63648;DHT22;49792;48.744;9.176;2022-08-19T12:19:48;22.90;63.50
63648;DHT22;49792;48.744;9.176;2022-08-19T12:22:17;23.00;62.60
63648;DHT22;49792;48.744;9.176;2022-08-19T12:24:43;22.80;64.10
63648;DHT22;49792;48.744;9.176;2022-08-19T12:27:09;22.80;62.60
63648;DHT22;49792;48.744;9.176;2022-08-19T12:29:35;22.90;62.40
63648;DHT22;49792;48.744;9.176;2022-08-19T12:32:00;22.90;63.80
63648;DHT22;49792;48.744;9.176;2022-08-19T12:34:28;22.90;64.30
63648;DHT22;49792;48.744;9.176;2022-08-19T12:36:56;22.90;65.40
63648;DHT22;49792;48.744;9.176;2022-08-19T12:39:34;22.80;65.90
63648;DHT22;49792;48.744;9.176;2022-08-19T12:41:59;22.80;66.70
63648;DHT22;49792;48.744;9.176;2022-08-19T12:44:28;22.80;67.50
63648;DHT22;49792;48.744;9.176;2022-08-19T12:46:57;22.70;68.00
63648;DHT22;49792;48.744;9.176;2022-08-19T12:49:25;22.70;68.20
63648;DHT22;49792;48.744;9.176;2022-08-19T12:51:55;22.60;68.50
63648;DHT22;49792;48.744;9.176;2022-08-19T12:54:24;22.70;68.10
63648;DHT22;49792;48.744;9.176;2022-08-19T12:56:49;22.70;68.80
63648;DHT22;49792;48.744;9.176;2022-08-19T12:59:15;22.70;68.30
63648;DHT22;49792;48.744;9.176;2022-08-19T13:01:43;22.70;68.20
63648;DHT22;49792;48.744;9.176;2022-08-19T13:04:08;22.70;68.00
63648;DHT22;49792;48.744;9.176;2022-08-19T13:06:34;22.70;68.20
63648;DHT22;49792;48.744;9.176;2022-08-19T13:08:59;22.70;68.70
63648;DHT22;49792;48.744;9.176;2022-08-19T13:11:25;22.80;68.30
63648;DHT22;49792;48.744;9.176;2022-08-19T13:13:51;22.70;68.90
63648;DHT22;49792;48.744;9.176;2022-08-19T13:16:17;22.80;69.40
63648;DHT22;49792;48.744;9.176;2022-08-19T13:18:44;22.70;69.70
63648;DHT22;49792;48.744;9.176;2022-08-19T13:21:10;22.90;69.40
63648;DHT22;49792;48.744;9.176;2022-08-19T13:23:38;22.90;69.30
63648;DHT22;49792;48.744;9.176;2022-08-19T13:26:05;22.90;69.30
63648;DHT22;49792;48.744;9.176;2022-08-19T13:28:31;22.90;69.30
63648;DHT22;49792;48.744;9.176;2022-08-19T13:31:17;23.00;69.20
63648;DHT22;49792;48.744;9.176;2022-08-19T13:34:02;23.10;67.20
63648;DHT22;49792;48.744;9.176;2022-08-19T13:36:27;23.20;66.40
63648;DHT22;49792;48.744;9.176;2022-08-19T13:38:53;23.30;65.50
63648;DHT22;49792;48.744;9.176;2022-08-19T13:41:19;23.20;66.20
63648;DHT22;49792;48.744;9.176;2022-08-19T13:43:44;23.30;67.00
63648;DHT22;49792;48.744;9.176;2022-08-19T13:46:11;23.30;64.60
63648;DHT22;49792;48.744;9.176;2022-08-19T13:48:39;23.40;63.70
63648;DHT22;49792;48.744;9.176;2022-08-19T13:51:06;23.20;66.90
63648;DHT22;49792;48.744;9.176;2022-08-19T13:53:31;23.20;65.90
63648;DHT22;49792;48.744;9.176;2022-08-19T13:55:57;23.30;65.10
63648;DHT22;49792;48.744;9.176;2022-08-19T13:58:23;23.30;64.10
63648;DHT22;49792;48.744;9.176;2022-08-19T14:00:48;23.40;65.70
63648;DHT22;49792;48.744;9.176;2022-08-19T14:03:14;23.40;63.50
63648;DHT22;49792;48.744;9.176;2022-08-19T14:05:40;23.30;64.40
63648;DHT22;49792;48.744;9.176;2022-08-19T14:08:06;23.40;64.00
63648;DHT22;49792;48.744;9.176;2022-08-19T14:10:31;23.40;63.50
63648;DHT22;49792;48.744;9.176;2022-08-19T14:12:58;23.30;66.50
63648;DHT22;49792;48.744;9.176;2022-08-19T14:15:24;23.20;66.00
63648;DHT22;49792;48.744;9.176;2022-08-19T14:17:50;23.10;66.40
63648;DHT22;49792;48.744;9.176;2022-08-19T14:20:15;23.10;65.90
63648;DHT22;49792;48.744;9.176;2022-08-19T14:22:42;23.20;65.70
63648;DHT22;49792;48.744;9.176;2022-08-19T14:25:09;23.30;65.60
63648;DHT22;49792;48.744;9.176;2022-08-19T14:27:35;23.20;65.80
63648;DHT22;49792;48.744;9.176;2022-08-19T14:30:01;23.20;64.90
63648;DHT22;49792;48.744;9.176;2022-08-19T14:32:27;23.20;64.50
63648;DHT22;49792;48.744;9.176;2022-08-19T14:34:54;23.30;64.10
63648;DHT22;49792;48.744;9.176;2022-08-19T14:37:19;23.30;63.50
63648;DHT22;49792;48.744;9.176;2022-08-19T14:39:45;23.30;64.10
63648;DHT22;49792;48.744;9.176;2022-08-19T14:42:11;23.30;63.80
63648;DHT22;49792;48.744;9.176;2022-08-19T14:44:37;23.40;64.30
63648;DHT22;49792;48.744;9.176;2022-08-19T14:47:02;23.30;64.40
63648;DHT22;49792;48.744;9.176;2022-08-19T14:49:28;23.30;63.80
63648;DHT22;49792;48.744;9.176;2022-08-19T14:51:54;23.30;63.30
63648;DHT22;49792;48.744;9.176;2022-08-19T14:54:20;23.30;63.60
63648;DHT22;49792;48.744;9.176;2022-08-19T14:56:45;23.40;64.10
63648;DHT22;49792;48.744;9.176;2022-08-19T14:59:11;23.30;63.50
63648;DHT22;49792;48.744;9.176;2022-08-19T15:01:36;23.40;63.80
63648;DHT22;49792;48.744;9.176;2022-08-19T15:04:02;23.40;64.50
63648;DHT22;49792;48.744;9.176;2022-08-19T15:06:28;23.30;63.60
63648;DHT22;49792;48.744;9.176;2022-08-19T15:08:54;23.40;64.70
63648;DHT22;49792;48.744;9.176;2022-08-19T15:11:22;23.30;64.40
63648;DHT22;49792;48.744;9.176;2022-08-19T15:13:48;23.30;64.20
63648;DHT22;49792;48.744;9.176;2022-08-19T15:16:15;23.30;65.10
63648;DHT22;49792;48.744;9.176;2022-08-19T15:18:41;23.30;64.00
63648;DHT22;49792;48.744;9.176;2022-08-19T15:21:10;23.30;64.10
63648;DHT22;49792;48.744;9.176;2022-08-19T15:23:37;23.30;64.30
63648;DHT22;49792;48.744;9.176;2022-08-19T15:26:03;23.30;64.40
63648;DHT22;49792;48.744;9.176;2022-08-19T15:28:31;23.20;64.80
63648;DHT22;49792;48.744;9.176;2022-08-19T15:30:57;23.30;64.60
63648;DHT22;49792;48.744;9.176;2022-08-19T15:33:23;23.30;65.50
63648;DHT22;49792;48.744;9.176;2022-08-19T15:35:49;23.20;66.30
63648;DHT22;49792;48.744;9.176;2022-08-19T15:38:16;23.10;66.80